Time;durP1;ratioP1;P1;durP2;ratioP2;P2;SDS_P1;SDS_P2;PMS_P1;PMS_P2;Temp;Humidity;BMP_temperature;BMP_pressure;BME280_temperature;BME280_humidity;BME280_pressure;Samples;Min_cycle;Max_cycle;Signal;HPM_P1;HPM_P2
2022/08/01 00:00:10;;;;;;;2.67;2.37;;;19.60;99.90;;;;;;4978031;28;20452;-80
2022/08/01 00:02:39;;;;;;;2.93;2.67;;;19.60;99.90;;;;;;4994340;28;20488;-80
2022/08/01 00:05:10;;;;;;;2.80;2.50;;;19.60;99.90;;;;;;4978351;28;20456;-81
2022/08/01 00:07:39;;;;;;;2.90;2.60;;;19.60;99.90;;;;;;4977952;28;20448;-80
2022/08/01 00:10:11;;;;;;;3.57;3.27;;;19.60;99.90;;;;;;4978248;28;20551;-81
2022/08/01 00:12:42;;;;;;;4.90;4.50;;;19.60;99.90;;;;;;4996024;28;20421;-81
2022/08/01 00:15:13;;;;;;;5.87;5.37;;;19.60;99.90;;;;;;4978397;28;20957;-80
2022/08/01 00:17:43;;;;;;;6.20;5.63;;;19.50;99.90;;;;;;4996278;28;20441;-80
2022/08/01 00:20:13;;;;;;;6.87;6.20;;;19.50;99.90;;;;;;5002321;28;20455;-81
2022/08/01 00:22:42;;;;;;;7.07;6.47;;;19.50;99.90;;;;;;4999721;28;20449;-80
2022/08/01 00:25:10;;;;;;;8.10;7.40;;;19.50;99.90;;;;;;5016890;28;20437;-80
2022/08/01 00:27:38;;;;;;;7.97;7.27;;;19.50;99.90;;;;;;5001426;28;20441;-79
2022/08/01 00:30:09;;;;;;;7.90;7.20;;;19.40;99.90;;;;;;5004662;28;20438;-79
2022/08/01 00:32:42;;;;;;;9.83;8.83;;;19.40;99.90;;;;;;5002307;28;20527;-80
2022/08/01 00:35:11;;;;;;;8.73;7.87;;;19.40;99.90;;;;;;4994575;28;20484;-81
2022/08/01 00:37:39;;;;;;;8.97;7.70;;;19.40;99.90;;;;;;4996251;28;20462;-81
2022/08/01 00:40:08;;;;;;;8.03;7.33;;;19.40;99.90;;;;;;4995708;28;20512;-81
2022/08/01 00:42:36;;;;;;;8.00;7.27;;;19.40;99.90;;;;;;4992779;28;20472;-80
2022/08/01 00:45:12;;;;;;;7.90;7.20;;;19.40;99.90;;;;;;4992666;28;20445;-80
2022/08/01 00:47:41;;;;;;;7.20;6.23;;;19.40;99.90;;;;;;5010132;28;20776;-80
2022/08/01 00:50:10;;;;;;;7.90;7.20;;;19.40;99.90;;;;;;5004902;28;20476;-80
2022/08/01 00:52:41;;;;;;;6.33;5.73;;;19.40;99.90;;;;;;5002881;28;20443;-80
2022/08/01 00:55:10;;;;;;;6.27;5.67;;;19.40;99.90;;;;;;4985094;28;20802;-80
2022/08/01 00:57:43;;;;;;;6.63;6.00;;;19.30;99.90;;;;;;5001860;28;20425;-80
2022/08/01 01:00:34;;;;;;;6.87;6.27;;;19.30;99.90;;;;;;5001556;28;20805;-80
2022/08/01 01:03:20;;;;;;;8.53;6.57;;;19.30;99.90;;;;;;4983023;28;20536;-79
2022/08/01 01:06:13;;;;;;;8.23;7.43;;;19.30;99.90;;;;;;4983043;28;20461;-80
2022/08/01 01:08:48;;;;;;;7.77;6.97;;;19.30;99.90;;;;;;4983122;28;20445;-80
2022/08/01 01:11:25;;;;;;;8.80;7.90;;;19.30;99.90;;;;;;5000376;28;20822;-80
2022/08/01 01:13:58;;;;;;;9.37;8.20;;;19.30;99.90;;;;;;5000492;28;20464;-80
2022/08/01 01:16:29;;;;;;;10.17;9.17;;;19.20;99.90;;;;;;4982259;28;20441;-80
2022/08/01 01:19:03;;;;;;;9.80;8.90;;;19.20;99.90;;;;;;4982517;28;20475;-80
2022/08/01 01:22:01;;;;;;;9.90;9.00;;;19.30;99.90;;;;;;4982776;28;20978;-80
2022/08/01 01:24:39;;;;;;;9.83;8.93;;;19.20;99.90;;;;;;4999462;28;21036;-80
2022/08/01 01:27:19;;;;;;;10.60;8.67;;;19.20;99.90;;;;;;4982192;28;20552;-80
2022/08/01 01:29:52;;;;;;;7.87;7.10;;;19.20;99.90;;;;;;4981809;28;20444;-80
2022/08/01 01:32:34;;;;;;;9.80;7.77;;;19.20;99.90;;;;;;4982010;28;20574;-80
2022/08/01 01:35:07;;;;;;;8.40;7.60;;;19.20;99.90;;;;;;4981283;28;20504;-80
2022/08/01 01:37:36;;;;;;;9.33;8.33;;;19.20;99.90;;;;;;4980567;28;20528;-80
2022/08/01 01:40:06;;;;;;;8.33;7.53;;;19.20;99.90;;;;;;4979458;28;20455;-80
2022/08/01 01:42:35;;;;;;;10.23;8.50;;;19.20;99.90;;;;;;4980410;28;20469;-80
2022/08/01 01:45:08;;;;;;;9.27;7.90;;;19.20;99.90;;;;;;4998287;28;20452;-80
2022/08/01 01:47:38;;;;;;;9.40;8.50;;;19.20;99.90;;;;;;4980543;28;20531;-80
2022/08/01 01:50:09;;;;;;;9.97;8.97;;;19.20;99.90;;;;;;4981096;28;20444;-80
2022/08/01 01:52:40;;;;;;;8.70;7.80;;;19.20;99.90;;;;;;4997913;28;20487;-80
2022/08/01 01:55:11;;;;;;;10.23;8.33;;;19.20;99.90;;;;;;4997645;28;20421;-79
2022/08/01 01:57:41;;;;;;;9.07;8.27;;;19.20;99.90;;;;;;4980342;28;20943;-80
2022/08/01 02:00:13;;;;;;;8.67;7.87;;;19.20;99.90;;;;;;4980232;28;20441;-80
2022/08/01 02:02:42;;;;;;;9.70;8.80;;;19.20;99.90;;;;;;4997480;28;20476;-80
2022/08/01 02:05:13;;;;;;;9.87;8.40;;;19.20;99.90;;;;;;4980150;28;20453;-80
2022/08/01 02:07:42;;;;;;;8.90;8.10;;;19.20;99.90;;;;;;4998222;28;20491;-80
2022/08/01 02:10:12;;;;;;;8.93;8.13;;;19.20;99.90;;;;;;4979766;28;20453;-80
2022/08/01 02:12:46;;;;;;;9.77;7.90;;;19.20;99.90;;;;;;4980289;28;20471;-80
2022/08/01 02:15:16;;;;;;;8.50;7.40;;;19.20;99.90;;;;;;4979905;28;20523;-81
2022/08/01 02:17:48;;;;;;;8.53;7.70;;;19.20;99.90;;;;;;4979770;28;20445;-81
2022/08/01 02:20:17;;;;;;;7.50;6.80;;;19.20;99.90;;;;;;4997513;28;20421;-81
2022/08/01 02:22:51;;;;;;;7.60;6.73;;;19.10;99.90;;;;;;4997522;28;20472;-81
2022/08/01 02:25:24;;;;;;;8.73;8.00;;;19.10;99.90;;;;;;4979598;28;20476;-81
2022/08/01 02:28:00;;;;;;;8.60;7.80;;;19.10;99.90;;;;;;4996500;28;20437;-81
2022/08/01 02:30:34;;;;;;;8.37;7.57;;;19.10;99.90;;;;;;4995504;28;20468;-81
2022/08/01 02:33:06;;;;;;;9.20;8.50;;;19.10;99.90;;;;;;4979339;28;20519;-80
2022/08/01 02:35:44;;;;;;;8.60;7.90;;;19.10;99.90;;;;;;4979256;28;20459;-80
2022/08/01 02:38:35;;;;;;;8.93;8.13;;;19.10;99.90;;;;;;4979079;28;20555;-80
2022/08/01 02:41:09;;;;;;;8.20;7.40;;;19.00;99.90;;;;;;4979105;28;20809;-80
2022/08/01 02:43:39;;;;;;;8.63;7.83;;;19.00;99.90;;;;;;4996522;28;20507;-80
2022/08/01 02:46:12;;;;;;;9.13;8.23;;;19.00;99.90;;;;;;4997063;28;20942;-80
2022/08/01 02:48:44;;;;;;;8.90;8.10;;;19.00;99.90;;;;;;4979119;28;20873;-80
2022/08/01 02:51:14;;;;;;;8.00;7.30;;;19.00;99.90;;;;;;4978945;28;20487;-80
2022/08/01 02:53:44;;;;;;;8.40;7.70;;;19.00;99.90;;;;;;4996637;28;20901;-80
2022/08/01 02:56:14;;;;;;;9.27;8.43;;;19.00;99.90;;;;;;4978824;28;20453;-80
2022/08/01 02:58:44;;;;;;;9.10;8.30;;;19.00;99.90;;;;;;4978630;28;20484;-80
2022/08/01 03:01:15;;;;;;;9.20;8.30;;;19.00;99.90;;;;;;4994229;28;20503;-80
2022/08/01 03:03:47;;;;;;;8.40;7.60;;;19.00;99.90;;;;;;4978391;28;20488;-80
2022/08/01 03:06:16;;;;;;;8.77;7.97;;;19.00;99.90;;;;;;4978386;28;20472;-80
2022/08/01 03:08:48;;;;;;;9.50;8.67;;;19.00;99.90;;;;;;4978717;28;20457;-80
2022/08/01 03:11:18;;;;;;;9.93;8.93;;;19.00;99.90;;;;;;4996631;28;20787;-81
2022/08/01 03:13:48;;;;;;;10.37;9.20;;;19.00;99.90;;;;;;4978228;28;20464;-80
2022/08/01 03:16:18;;;;;;;8.77;7.97;;;18.90;99.90;;;;;;4996509;28;20449;-80
2022/08/01 03:18:49;;;;;;;8.03;7.27;;;18.90;99.90;;;;;;4995511;28;20425;-80
2022/08/01 03:21:19;;;;;;;7.90;7.10;;;18.90;99.90;;;;;;4977759;28;20495;-80
2022/08/01 03:23:50;;;;;;;7.83;7.13;;;18.90;99.90;;;;;;4978552;28;20491;-80
2022/08/01 03:26:22;;;;;;;7.70;6.90;;;18.90;99.90;;;;;;4978570;28;20445;-80
2022/08/01 03:28:54;;;;;;;8.07;7.37;;;18.90;99.90;;;;;;4977904;28;20444;-80
2022/08/01 03:31:25;;;;;;;7.43;6.83;;;18.80;99.90;;;;;;4995783;28;20915;-80
2022/08/01 03:33:53;;;;;;;7.63;6.53;;;18.80;99.90;;;;;;4978049;28;20874;-80
2022/08/01 03:36:26;;;;;;;7.43;6.73;;;18.80;99.90;;;;;;4996709;28;20445;-80
2022/08/01 03:38:58;;;;;;;8.20;6.10;;;18.80;99.90;;;;;;4978766;28;20472;-80
2022/08/01 03:41:31;;;;;;;6.83;6.23;;;18.80;99.90;;;;;;4978285;28;20966;-80
2022/08/01 03:44:05;;;;;;;7.20;6.20;;;18.80;99.90;;;;;;4978688;28;20563;-80
2022/08/01 03:46:41;;;;;;;6.77;5.97;;;18.70;99.90;;;;;;4995563;28;20468;-80
2022/08/01 03:49:13;;;;;;;6.57;5.93;;;18.70;99.90;;;;;;4994274;28;20551;-80
2022/08/01 03:51:42;;;;;;;6.80;5.73;;;18.70;99.90;;;;;;4978086;28;20445;-80
2022/08/01 03:54:11;;;;;;;6.83;6.23;;;18.70;99.90;;;;;;4978803;28;21048;-80
2022/08/01 03:56:42;;;;;;;7.50;6.80;;;18.70;99.90;;;;;;4995391;28;20889;-80
2022/08/01 03:59:11;;;;;;;8.40;6.10;;;18.70;99.90;;;;;;4978043;28;20464;-80
2022/08/01 04:01:41;;;;;;;6.20;5.60;;;18.70;99.90;;;;;;4978348;28;20461;-80
2022/08/01 04:04:09;;;;;;;7.20;6.50;;;18.60;99.90;;;;;;4983512;28;20512;-80
2022/08/01 04:06:39;;;;;;;6.17;5.57;;;18.60;99.90;;;;;;4985810;28;20448;-80
2022/08/01 04:09:08;;;;;;;7.57;5.67;;;18.60;99.90;;;;;;4984342;28;20481;-80
2022/08/01 04:11:41;;;;;;;6.30;5.70;;;18.60;99.90;;;;;;4983724;28;20440;-80
2022/08/01 04:14:09;;;;;;;8.03;6.40;;;18.60;99.90;;;;;;4984188;28;20476;-81
2022/08/01 04:16:38;;;;;;;6.40;5.80;;;18.60;99.90;;;;;;4984055;28;20448;-80
2022/08/01 04:19:09;;;;;;;7.03;5.13;;;18.60;99.90;;;;;;5001078;28;20551;-80
2022/08/01 04:21:37;;;;;;;6.37;5.07;;;18.50;99.90;;;;;;4982936;28;20477;-80
2022/08/01 04:24:13;;;;;;;6.07;5.47;;;18.50;99.90;;;;;;5001325;28;20571;-80
2022/08/01 04:26:44;;;;;;;5.70;5.20;;;18.50;99.90;;;;;;4983481;28;20468;-80
2022/08/01 04:29:14;;;;;;;5.70;5.20;;;18.50;99.90;;;;;;5000767;28;20432;-80
2022/08/01 04:31:45;;;;;;;6.47;5.17;;;18.50;99.90;;;;;;4982586;28;20449;-80
2022/08/01 04:34:18;;;;;;;6.87;5.10;;;18.50;99.90;;;;;;5001019;28;20460;-80
2022/08/01 04:36:48;;;;;;;5.30;4.30;;;18.40;99.90;;;;;;4983242;28;20930;-81
2022/08/01 04:39:19;;;;;;;6.17;4.97;;;18.40;99.90;;;;;;5000883;28;20536;-80
2022/08/01 04:41:49;;;;;;;7.57;3.93;;;18.40;99.90;;;;;;4982734;28;20798;-80
2022/08/01 04:44:17;;;;;;;7.73;4.30;;;18.40;99.90;;;;;;4983253;28;20494;-80
2022/08/01 04:46:48;;;;;;;5.73;3.57;;;18.40;99.90;;;;;;4982906;28;20453;-80
2022/08/01 04:49:18;;;;;;;4.30;3.20;;;18.30;99.90;;;;;;4983683;28;20441;-81
2022/08/01 04:51:57;;;;;;;6.50;4.83;;;18.30;99.90;;;;;;4982523;28;20476;-81
2022/08/01 04:54:25;;;;;;;6.30;4.00;;;18.30;99.90;;;;;;4999007;28;20464;-80
2022/08/01 04:56:55;;;;;;;4.77;4.00;;;18.30;99.90;;;;;;5001532;28;20870;-80
2022/08/01 04:59:41;;;;;;;4.40;3.40;;;18.30;99.90;;;;;;5001690;28;20503;-80
2022/08/01 05:02:11;;;;;;;3.80;3.30;;;18.30;99.90;;;;;;4982771;28;20508;-80
2022/08/01 05:04:42;;;;;;;8.13;4.33;;;18.30;99.90;;;;;;4982389;28;20481;-80
2022/08/01 05:07:11;;;;;;;5.13;3.57;;;18.30;99.90;;;;;;4999433;28;20441;-81
2022/08/01 05:09:41;;;;;;;5.73;3.20;;;18.30;99.90;;;;;;5001099;28;20412;-81
2022/08/01 05:12:10;;;;;;;6.13;3.83;;;18.30;99.90;;;;;;5000850;28;20938;-81
2022/08/01 05:14:39;;;;;;;5.07;3.50;;;18.30;99.90;;;;;;4981736;28;20443;-80
2022/08/01 05:17:08;;;;;;;6.70;4.03;;;18.30;99.90;;;;;;4982909;28;20528;-80
2022/08/01 05:19:38;;;;;;;6.00;3.30;;;18.30;99.90;;;;;;4982399;28;20499;-81
2022/08/01 05:22:09;;;;;;;8.50;4.43;;;18.30;99.90;;;;;;4982319;28;20456;-80
2022/08/01 05:24:38;;;;;;;5.17;3.10;;;18.30;99.90;;;;;;4982389;28;20548;-80
2022/08/01 05:27:08;;;;;;;7.97;3.53;;;18.30;99.90;;;;;;4982960;28;20445;-81
2022/08/01 05:29:40;;;;;;;5.90;3.53;;;18.30;99.90;;;;;;4983048;28;20954;-80
2022/08/01 05:32:12;;;;;;;8.43;3.67;;;18.30;99.90;;;;;;5000821;28;20437;-81
2022/08/01 05:34:40;;;;;;;7.33;3.23;;;18.30;99.90;;;;;;4982820;28;20493;-80
2022/08/01 05:37:09;;;;;;;5.70;3.50;;;18.30;99.90;;;;;;4983970;28;20455;-79
2022/08/01 05:39:38;;;;;;;7.73;3.90;;;18.30;99.90;;;;;;4985579;28;20467;-80
2022/08/01 05:42:07;;;;;;;5.77;3.67;;;18.30;99.90;;;;;;4988196;28;20471;-79
2022/08/01 05:44:36;;;;;;;13.70;4.90;;;18.30;99.90;;;;;;4988928;28;20500;-80
2022/08/01 05:47:04;;;;;;;8.30;4.30;;;18.20;99.90;;;;;;4997240;28;20464;-80
2022/08/01 05:49:32;;;;;;;6.40;4.37;;;18.20;99.90;;;;;;5016997;28;20453;-80
2022/08/01 05:52:01;;;;;;;9.50;5.50;;;18.20;99.90;;;;;;5018537;28;20420;-79
2022/08/01 05:54:32;;;;;;;9.10;4.43;;;18.20;99.90;;;;;;5001955;28;20453;-79
2022/08/01 05:57:01;;;;;;;12.10;4.97;;;18.20;99.90;;;;;;5004097;28;20425;-80
2022/08/01 05:59:29;;;;;;;8.63;4.67;;;18.20;99.90;;;;;;4993337;28;20471;-79
2022/08/01 06:01:58;;;;;;;10.83;4.73;;;18.20;99.90;;;;;;4990074;28;20800;-79
2022/08/01 06:04:26;;;;;;;7.07;4.50;;;18.10;99.90;;;;;;4989858;28;20483;-79
2022/08/01 06:06:54;;;;;;;10.20;5.17;;;18.20;99.90;;;;;;4984877;28;20795;-80
2022/08/01 06:09:23;;;;;;;10.53;4.93;;;18.10;99.90;;;;;;4998117;28;20825;-80
2022/08/01 06:11:52;;;;;;;8.30;4.30;;;18.20;99.90;;;;;;4998128;28;20468;-80
2022/08/01 06:14:20;;;;;;;8.30;4.60;;;18.10;99.90;;;;;;4980844;28;20465;-80
2022/08/01 06:16:48;;;;;;;10.03;4.57;;;18.10;99.90;;;;;;4999751;28;20445;-80
2022/08/01 06:19:17;;;;;;;9.73;4.90;;;18.10;99.90;;;;;;4999364;28;20444;-80
2022/08/01 06:21:45;;;;;;;8.30;4.30;;;18.00;99.90;;;;;;4998951;28;20455;-81
2022/08/01 06:24:13;;;;;;;7.47;4.53;;;18.00;99.90;;;;;;4981062;28;20957;-80
2022/08/01 06:26:42;;;;;;;7.37;4.63;;;18.00;99.90;;;;;;4980415;28;20456;-79
2022/08/01 06:29:12;;;;;;;8.23;4.47;;;17.90;99.90;;;;;;4999109;28;20531;-80
2022/08/01 06:31:41;;;;;;;15.13;5.30;;;17.90;99.90;;;;;;4998693;28;20453;-80
2022/08/01 06:34:09;;;;;;;10.27;4.70;;;17.90;99.90;;;;;;4980617;28;20477;-80
2022/08/01 06:36:37;;;;;;;12.67;5.03;;;17.80;99.90;;;;;;4997384;28;20449;-80
2022/08/01 06:39:05;;;;;;;7.90;4.47;;;17.80;99.90;;;;;;4979986;28;20517;-79
2022/08/01 06:41:33;;;;;;;9.40;6.20;;;17.80;99.90;;;;;;4979520;28;20445;-79
2022/08/01 06:44:04;;;;;;;9.10;4.80;;;17.80;99.90;;;;;;4979097;28;20477;-80
2022/08/01 06:46:34;;;;;;;8.60;5.23;;;17.80;99.90;;;;;;4979536;28;20441;-80
2022/08/01 06:49:03;;;;;;;12.30;5.13;;;17.80;99.90;;;;;;4997353;28;20464;-80
2022/08/01 06:51:31;;;;;;;11.43;5.20;;;17.80;99.90;;;;;;4996904;28;20795;-79
2022/08/01 06:53:59;;;;;;;8.77;5.50;;;17.80;99.90;;;;;;4997204;28;20469;-80
2022/08/01 06:56:27;;;;;;;11.20;4.87;;;17.80;99.90;;;;;;4979383;28;20440;-80
2022/08/01 06:59:00;;;;;;;10.73;5.00;;;17.80;99.90;;;;;;4997087;28;20468;-79
2022/08/01 07:01:28;;;;;;;10.43;5.57;;;17.80;99.90;;;;;;4980681;28;20475;-80
2022/08/01 07:04:02;;;;;;;14.27;6.27;;;17.80;99.90;;;;;;4980405;28;20476;-80
2022/08/01 07:06:30;;;;;;;11.53;5.50;;;17.80;99.90;;;;;;4998594;28;20464;-80
2022/08/01 07:09:00;;;;;;;9.50;4.90;;;17.80;99.90;;;;;;4979639;28;20484;-80
2022/08/01 07:11:37;;;;;;;14.00;5.70;;;17.80;99.90;;;;;;4979575;28;20433;-80
2022/08/01 07:14:06;;;;;;;8.47;5.77;;;17.80;99.90;;;;;;4980060;28;20910;-80
2022/08/01 07:16:34;;;;;;;10.50;5.13;;;17.80;99.90;;;;;;4979297;28;20476;-80
2022/08/01 07:19:04;;;;;;;11.27;4.70;;;17.80;99.90;;;;;;4978949;28;20447;-80
2022/08/01 07:21:32;;;;;;;11.40;5.80;;;17.80;99.90;;;;;;4997429;28;20452;-79
2022/08/01 07:24:07;;;;;;;14.47;6.03;;;17.80;99.90;;;;;;4979775;28;20479;-80
2022/08/01 07:26:41;;;;;;;9.47;5.20;;;17.80;99.90;;;;;;4979774;28;20437;-81
2022/08/01 07:29:22;;;;;;;13.03;4.90;;;17.90;99.90;;;;;;4979661;28;20452;-80
2022/08/01 07:31:50;;;;;;;10.33;5.83;;;17.90;99.90;;;;;;4980523;28;20531;-80
2022/08/01 07:34:20;;;;;;;12.00;5.50;;;17.90;99.90;;;;;;4997454;28;20457;-80
2022/08/01 07:36:48;;;;;;;11.47;5.53;;;17.90;99.90;;;;;;4997958;28;20449;-80
2022/08/01 07:39:16;;;;;;;9.80;4.73;;;17.90;99.90;;;;;;5001539;28;20492;-80
2022/08/01 07:41:45;;;;;;;17.20;5.90;;;18.00;99.90;;;;;;4982561;28;20872;-79
2022/08/01 07:44:33;;;;;;;13.00;7.00;;;18.00;99.90;;;;;;4981748;28;20504;-80
2022/08/01 07:47:01;;;;;;;9.80;5.50;;;18.00;99.90;;;;;;4982464;28;20789;-79
2022/08/01 07:49:31;;;;;;;14.20;5.30;;;18.00;99.90;;;;;;4981685;28;20495;-80
2022/08/01 07:52:04;;;;;;;13.03;6.57;;;18.00;99.90;;;;;;4981831;28;20441;-79
2022/08/01 07:54:33;;;;;;;11.23;5.30;;;18.10;99.90;;;;;;4982367;28;20467;-80
2022/08/01 07:57:02;;;;;;;14.23;5.67;;;18.20;99.90;;;;;;4981556;28;20452;-79
2022/08/01 07:59:30;;;;;;;10.47;4.97;;;18.50;99.90;;;;;;4982186;28;20455;-79
2022/08/01 08:01:58;;;;;;;10.67;5.27;;;18.70;99.90;;;;;;4982957;28;20457;-79
2022/08/01 08:04:27;;;;;;;7.40;4.70;;;19.00;99.90;;;;;;4982895;28;20568;-80
2022/08/01 08:06:57;;;;;;;13.70;5.07;;;19.10;99.90;;;;;;4983615;28;20507;-80
2022/08/01 08:09:25;;;;;;;14.27;4.90;;;19.20;99.90;;;;;;4983556;28;20865;-79
2022/08/01 08:11:53;;;;;;;11.60;4.90;;;19.20;99.90;;;;;;4983403;28;20539;-80
2022/08/01 08:14:22;;;;;;;10.67;4.60;;;19.30;99.90;;;;;;5001781;28;20837;-80
2022/08/01 08:16:59;;;;;;;11.73;4.20;;;19.20;99.90;;;;;;4984259;28;20433;-80
2022/08/01 08:19:31;;;;;;;8.63;4.47;;;19.30;99.90;;;;;;4983970;28;20449;-80
2022/08/01 08:22:07;;;;;;;11.53;5.30;;;19.30;99.90;;;;;;4983929;28;20444;-80
2022/08/01 08:24:38;;;;;;;14.97;4.93;;;19.30;99.90;;;;;;4983469;28;20575;-80
2022/08/01 08:27:14;;;;;;;10.70;3.97;;;19.20;99.90;;;;;;5001810;28;20421;-80
2022/08/01 08:29:42;;;;;;;11.70;4.43;;;19.20;99.90;;;;;;4983515;28;20543;-80
2022/08/01 08:32:12;;;;;;;14.50;4.97;;;19.20;99.90;;;;;;4983184;28;20445;-80
2022/08/01 08:34:40;;;;;;;9.47;4.83;;;19.20;99.90;;;;;;5000618;28;20452;-79
2022/08/01 08:37:10;;;;;;;10.70;4.80;;;19.20;99.90;;;;;;4982794;28;20452;-80
2022/08/01 08:39:38;;;;;;;10.80;4.77;;;19.30;99.90;;;;;;4982568;28;20950;-79
2022/08/01 08:42:10;;;;;;;12.00;4.73;;;19.30;99.90;;;;;;4982929;28;20433;-80
2022/08/01 08:44:40;;;;;;;8.73;4.40;;;19.40;99.90;;;;;;4999895;28;20487;-80
2022/08/01 08:47:14;;;;;;;13.17;4.60;;;19.50;99.90;;;;;;4982746;28;20448;-80
2022/08/01 08:49:49;;;;;;;16.13;4.70;;;19.50;99.90;;;;;;4982028;28;20452;-79
2022/08/01 08:52:19;;;;;;;12.13;4.20;;;19.60;99.90;;;;;;4982296;28;20488;-80
2022/08/01 08:54:49;;;;;;;12.33;4.00;;;19.60;99.90;;;;;;4982607;28;20491;-80
2022/08/01 08:57:19;;;;;;;9.70;3.47;;;19.60;99.90;;;;;;4999644;28;20476;-79
2022/08/01 08:59:50;;;;;;;13.37;3.83;;;19.70;99.90;;;;;;4982117;28;20452;-79
2022/08/01 09:02:19;;;;;;;10.80;3.70;;;19.80;99.90;;;;;;4982147;28;20476;-80
2022/08/01 09:04:49;;;;;;;9.07;4.10;;;19.90;99.90;;;;;;4999291;28;20555;-79
2022/08/01 09:07:18;;;;;;;9.83;3.43;;;20.10;99.90;;;;;;4981927;28;20452;-79
2022/08/01 09:09:48;;;;;;;9.20;4.03;;;20.20;99.90;;;;;;4981872;28;20453;-79
2022/08/01 09:12:19;;;;;;;9.70;3.03;;;20.20;99.90;;;;;;5000103;28;20471;-80
2022/08/01 09:14:53;;;;;;;10.27;4.27;;;20.20;99.90;;;;;;4997672;28;20473;-79
2022/08/01 09:17:21;;;;;;;12.67;4.27;;;20.30;99.90;;;;;;4981275;28;20844;-80
2022/08/01 09:19:52;;;;;;;13.30;3.63;;;20.50;99.90;;;;;;4999430;28;20877;-79
2022/08/01 09:22:25;;;;;;;7.57;3.43;;;20.70;99.90;;;;;;4999330;28;20512;-80
2022/08/01 09:25:06;;;;;;;12.93;4.20;;;20.70;99.90;;;;;;4981871;28;20469;-80
2022/08/01 09:27:37;;;;;;;9.90;4.43;;;20.70;99.90;;;;;;4981552;28;20448;-80
2022/08/01 09:30:13;;;;;;;10.27;3.20;;;20.80;99.90;;;;;;4999243;28;20459;-80
2022/08/01 09:33:00;;;;;;;15.50;3.00;;;20.90;99.90;;;;;;4981555;28;20866;-80
2022/08/01 09:35:31;;;;;;;7.67;3.07;;;21.00;99.90;;;;;;4998858;28;20441;-79
2022/08/01 09:38:18;;;;;;;7.93;3.13;;;21.00;99.90;;;;;;4998166;28;20435;-79
2022/08/01 09:40:52;;;;;;;12.70;6.03;;;21.00;99.90;;;;;;4981171;28;20448;-79
2022/08/01 09:43:24;;;;;;;9.73;3.23;;;21.10;99.90;;;;;;4998652;28;20469;-79
2022/08/01 09:45:54;;;;;;;13.60;4.00;;;21.20;99.90;;;;;;4998319;28;20548;-79
2022/08/01 09:48:25;;;;;;;11.20;3.33;;;21.30;99.90;;;;;;4981137;28;20440;-80
2022/08/01 09:50:58;;;;;;;10.10;3.07;;;21.40;99.90;;;;;;4998594;28;20772;-79
2022/08/01 09:53:47;;;;;;;5.77;2.73;;;21.60;99.90;;;;;;4981128;28;20578;-79
2022/08/01 09:56:21;;;;;;;9.00;3.23;;;21.70;99.90;;;;;;4981102;28;20475;-80
2022/08/01 09:58:51;;;;;;;6.73;2.37;;;21.70;99.90;;;;;;4980575;28;20460;-79
2022/08/01 10:01:27;;;;;;;7.70;3.00;;;21.80;99.90;;;;;;4980596;28;20554;-80
2022/08/01 10:04:07;;;;;;;6.63;2.50;;;21.80;99.90;;;;;;4999138;28;20858;-79
2022/08/01 10:06:38;;;;;;;7.17;2.47;;;21.80;99.90;;;;;;4997837;28;20962;-79
2022/08/01 10:09:07;;;;;;;8.33;2.93;;;21.80;99.90;;;;;;4981031;28;20457;-79
2022/08/01 10:11:38;;;;;;;6.63;2.90;;;21.80;99.90;;;;;;4981532;28;20448;-80
2022/08/01 10:14:08;;;;;;;9.83;4.03;;;21.90;99.90;;;;;;4998945;28;20464;-80
2022/08/01 10:16:37;;;;;;;8.37;2.20;;;21.80;99.90;;;;;;4980893;28;20988;-79
2022/08/01 10:19:07;;;;;;;8.47;2.60;;;21.90;99.90;;;;;;4980957;28;20441;-80
2022/08/01 10:21:44;;;;;;;8.83;2.80;;;21.90;99.90;;;;;;4981082;28;20479;-80
2022/08/01 10:24:28;;;;;;;8.33;2.20;;;21.90;99.90;;;;;;4980615;28;20468;-80
2022/08/01 10:27:07;;;;;;;7.37;2.53;;;22.00;99.90;;;;;;4997832;28;20465;-80
2022/08/01 10:29:43;;;;;;;12.23;2.43;;;22.00;99.90;;;;;;4997383;28;20452;-80
2022/08/01 10:32:32;;;;;;;6.60;2.37;;;22.00;99.90;;;;;;4982107;28;20445;-80
2022/08/01 10:35:02;;;;;;;11.80;2.70;;;22.00;99.90;;;;;;4981423;28;21002;-80
2022/08/01 10:37:35;;;;;;;5.50;2.63;;;22.00;99.90;;;;;;4981523;28;20453;-80
2022/08/01 10:40:21;;;;;;;13.43;3.10;;;22.00;99.90;;;;;;4998761;28;20433;-80
2022/08/01 10:42:58;;;;;;;7.37;2.40;;;22.00;99.90;;;;;;4999254;28;20425;-80
2022/08/01 10:45:28;;;;;;;5.97;1.83;;;22.00;99.90;;;;;;4982093;28;20484;-80
2022/08/01 10:48:05;;;;;;;9.17;2.50;;;22.10;99.90;;;;;;4981225;28;21012;-80
2022/08/01 10:50:38;;;;;;;8.57;2.27;;;22.10;99.90;;;;;;5010683;28;20459;-80
2022/08/01 10:53:13;;;;;;;6.00;2.07;;;22.20;99.90;;;;;;5002888;28;20453;-79
2022/08/01 10:55:58;;;;;;;9.10;2.50;;;22.20;99.90;;;;;;5019742;28;20421;-79
2022/08/01 10:58:32;;;;;;;5.33;2.67;;;22.20;99.90;;;;;;5003072;28;20461;-79
2022/08/01 11:01:21;;;;;;;7.73;2.80;;;22.20;99.90;;;;;;5018913;28;20449;-79
2022/08/01 11:04:09;;;;;;;7.77;2.73;;;22.20;99.90;;;;;;5001988;28;20521;-79
2022/08/01 11:06:55;;;;;;;9.00;3.40;;;22.20;99.90;;;;;;5017918;28;20464;-80
2022/08/01 11:09:30;;;;;;;7.20;2.50;;;22.20;99.90;;;;;;5017564;28;20436;-79
2022/08/01 11:12:09;;;;;;;6.87;1.87;;;22.20;99.90;;;;;;4994337;28;20451;-80
2022/08/01 11:15:24;;;;;;;4.80;2.17;;;22.20;99.90;;;;;;4984371;28;20557;-80
2022/08/01 11:18:00;;;;;;;5.20;2.57;;;22.30;99.90;;;;;;4999350;28;20442;-80
2022/08/01 11:20:32;;;;;;;6.43;2.03;;;22.30;99.90;;;;;;4985212;28;20447;-80
2022/08/01 11:23:27;;;;;;;4.60;2.17;;;22.40;99.90;;;;;;4982154;28;20495;-80
2022/08/01 11:26:13;;;;;;;8.90;2.43;;;22.40;99.90;;;;;;5000619;28;20422;-80
2022/08/01 11:28:47;;;;;;;7.37;2.77;;;22.40;99.90;;;;;;4999773;28;20437;-80
2022/08/01 11:31:36;;;;;;;7.70;2.50;;;22.50;99.90;;;;;;4981425;28;20452;-80
2022/08/01 11:34:06;;;;;;;7.30;2.77;;;22.50;99.90;;;;;;4980052;28;20465;-81
2022/08/01 11:36:35;;;;;;;8.37;2.23;;;22.50;99.90;;;;;;4980095;28;20453;-78
2022/08/01 11:39:23;;;;;;;9.83;2.80;;;22.50;99.90;;;;;;4980958;28;20451;-81
2022/08/01 11:41:53;;;;;;;8.83;2.40;;;22.50;99.90;;;;;;4979876;28;20461;-81
2022/08/01 11:44:27;;;;;;;5.73;2.00;;;22.50;99.90;;;;;;4996957;28;20488;-81
2022/08/01 11:47:02;;;;;;;6.10;2.50;;;22.50;99.90;;;;;;4978491;28;20465;-81
2022/08/01 11:49:50;;;;;;;5.87;2.40;;;22.50;99.90;;;;;;4979176;28;20448;-81
2022/08/01 11:52:24;;;;;;;8.70;3.00;;;22.50;99.90;;;;;;4996710;28;20429;-81
2022/08/01 11:54:54;;;;;;;6.77;2.97;;;22.50;99.90;;;;;;4979404;28;20519;-81
2022/08/01 11:57:25;;;;;;;6.27;2.67;;;22.60;99.90;;;;;;4979132;28;20437;-81
2022/08/01 12:00:10;;;;;;;7.90;2.20;;;22.60;99.90;;;;;;4978942;28;20993;-81
2022/08/01 12:02:44;;;;;;;5.30;2.67;;;22.50;99.90;;;;;;4997763;28;20456;-82
2022/08/01 12:05:16;;;;;;;5.53;2.30;;;22.50;99.90;;;;;;4995654;28;20448;-81
2022/08/01 12:07:46;;;;;;;6.43;2.13;;;22.50;99.90;;;;;;4979979;28;20581;-80
2022/08/01 12:10:15;;;;;;;8.30;2.60;;;22.50;99.90;;;;;;4979734;28;20868;-81
2022/08/01 12:12:46;;;;;;;7.60;3.50;;;22.60;99.90;;;;;;4979722;28;20449;-81
2022/08/01 12:15:17;;;;;;;11.13;2.33;;;22.60;99.90;;;;;;4979942;28;20488;-81
2022/08/01 12:17:47;;;;;;;6.40;2.83;;;22.60;99.90;;;;;;4980306;28;20455;-81
2022/08/01 12:20:29;;;;;;;6.90;2.50;;;22.60;99.90;;;;;;4998471;28;20421;-81
2022/08/01 12:23:01;;;;;;;4.93;2.50;;;22.60;99.90;;;;;;4980337;28;20453;-81
2022/08/01 12:25:30;;;;;;;5.90;2.53;;;22.60;99.90;;;;;;4984169;28;20445;-81
2022/08/01 12:28:02;;;;;;;7.20;2.63;;;22.60;99.90;;;;;;4984262;28;20494;-81
2022/08/01 12:30:34;;;;;;;5.60;2.43;;;22.60;99.90;;;;;;5000908;28;20436;-81
2022/08/01 12:33:05;;;;;;;8.90;3.03;;;22.60;99.90;;;;;;4984232;28;20476;-81
2022/08/01 12:35:34;;;;;;;7.73;3.47;;;22.60;99.90;;;;;;4984509;28;20452;-81
2022/08/01 12:38:05;;;;;;;5.60;2.30;;;22.60;99.90;;;;;;5002004;28;20448;-81
2022/08/01 12:40:34;;;;;;;5.30;2.57;;;22.60;99.90;;;;;;4984366;28;20518;-81
2022/08/01 12:43:05;;;;;;;7.77;2.17;;;22.60;99.90;;;;;;5000714;28;20865;-81
2022/08/01 12:45:39;;;;;;;6.93;2.47;;;22.70;99.90;;;;;;4982507;28;20441;-78
2022/08/01 12:48:21;;;;;;;7.47;2.23;;;22.70;99.90;;;;;;4988594;28;20500;-82
2022/08/01 12:50:52;;;;;;;5.83;2.20;;;22.70;99.90;;;;;;5005859;28;20495;-82
2022/08/01 12:53:20;;;;;;;7.87;2.80;;;22.80;99.90;;;;;;4990050;28;20540;-82
2022/08/01 12:55:51;;;;;;;7.97;2.50;;;22.80;99.90;;;;;;4989243;28;20441;-81
2022/08/01 12:58:31;;;;;;;5.00;2.37;;;22.80;99.90;;;;;;4989727;28;20491;-82
2022/08/01 13:01:06;;;;;;;4.80;2.70;;;22.90;99.90;;;;;;5010348;28;20511;-81
2022/08/01 13:03:35;;;;;;;5.53;2.00;;;22.90;99.80;;;;;;5005877;28;20464;-82
2022/08/01 13:06:12;;;;;;;5.60;2.33;;;22.90;99.90;;;;;;5005703;28;20947;-82
2022/08/01 13:08:40;;;;;;;6.07;2.33;;;22.90;99.70;;;;;;4988105;28;21020;-82
2022/08/01 13:11:13;;;;;;;7.97;2.57;;;22.90;99.50;;;;;;4985770;28;20452;-82